Terminal Aerodrome Forecast
Issued by NWS Sterling, VA

Current Version | Previous Version | Graphics & Text | Print | Product List | Glossary Off
Versions: 1 2 3 4 5 6 7 8 9 10 11 12 13

570
FTUS41 KLWX 270541
TAFMRB
TAF
KMRB 270541Z 2706/2806 VRB03KT P6SM BKN070
     FM271100 00000KT P6SM SCT070
     FM271800 20005KT P6SM BKN050
     FM272300 19005KT P6SM SCT050
     FM280000 18004KT P6SM FEW080 SCT250=

USA.gov is the U.S. government's official web portal to all federal, state and local government web resources and services.